Where is Santarém, Santarem in Portugal?

 

Santarém is situated in the region Santarem in Portugal!

Search the name of a city:

Santuario della Madonna del Divino Amore, Santiago Seré, Santa Ana, Santander Railway Station, Santa Anita

Here you will find the location of Santarém on a map.
To see how it currently looks like outside, below are some pictures of the area from online web cameras.
You can also find the distance to the main cities in the region and to cities in the rest of Portugal.

There are 3 cities named Santarém in Portugal.

World Cities
Cities in Portugal that are also found in other countries in the world.


Where is Santarém on the map?




Webcams near Santarém

Benavente › North-East: Santarém - AIrport, METAR: BENAV 180005Z 36004KT 17/14 Q1015.


Benavente › North-East: Santarém - AIrport, METAR: BENAV 180005Z 36004KT 17/14 Q1015 - Day time
Current
Benavente › North-East: Santarém - AIrport, METAR: BENAV 180005Z 36004KT 17/14 Q1015 - Current

Sao Pedro de Tomar › North: Tomar -> N.


Sao Pedro de Tomar › North: Tomar -> N - Day time
Current
Sao Pedro de Tomar › North: Tomar -> N - Current

Sao Pedro de Tomar › North-East: Tomar -> NE.


Sao Pedro de Tomar › North-East: Tomar -> NE - Day time
Current
Sao Pedro de Tomar › North-East: Tomar -> NE - Current

Webcams provided by windy.comadd a webcam


Distances

Where is Santarém relative to other places?

Top 10 cities in Santarem and distance from Santarém.

City#Populationkmmiles
Santarém12938500
Entroncamento2198873220
Tomar3191684729
Torres Novas4145263119
Samora Correia5141543723
Abrantes6136464830
Ourém7127294729
Rio Maior8120642415
Fátima9117984327
Almeirim101155664

Top 10 cities in Portugal and distance from Santarém.

City # Populationkmmiles
Lisbon15177986943
Porto2249630212132
Amadora31788567144
Braga4121393259161
Setúbal51171098050
Coimbra610658011169
Queluz71033987245
Funchal8980411041647
Vila Nova de Gaia970810211131
Loures10662306138



Alerts and advice Portugal

Advice and information about traveling and security in Portugal.

With a travel advise, tourists can be informed about security risks during traveling or vacation in a foreign country. Be informed about the risks of kidnapping, armed robbery, bombings, natural disasters or war. Know which areas are unsafe in Portugalo. Be vigilant, or avoid certain areas when on vacation in Portugal.

Alerts and advice



Travel information Portugal

Information on travel documents, visa applications and the cost of a visa.
Contact information of embassies in Portugal.
Different types of travel insurance.

Travel information

Info

Statistics and Geographics

Portugal is made up of 15299 cities in 20 regions.

The region Santarem has 1174 cities.

Santarém is number 1 in the region Santarem.

The city is number 33 in Portugal.

The population is 29390.

Where is Santarém, Santarem in Portugal?